createdAt,value
2023-05-14T00:01:32.603Z,16.08
2023-05-14T00:03:59.728Z,16.92
2023-05-14T00:06:26.848Z,16.13
2023-05-14T00:08:53.850Z,16.52
2023-05-14T00:11:21.443Z,15.60
2023-05-14T00:13:48.437Z,16.45
2023-05-14T00:16:16.089Z,17.38
2023-05-14T00:18:43.244Z,15.70
2023-05-14T00:21:10.409Z,17.20
2023-05-14T00:23:37.362Z,16.25
2023-05-14T00:26:04.463Z,16.17
2023-05-14T00:28:31.467Z,16.65
2023-05-14T00:30:58.540Z,15.77
2023-05-14T00:33:25.901Z,15.65
2023-05-14T00:35:52.927Z,16.17
2023-05-14T00:38:19.880Z,16.92
2023-05-14T00:40:51.338Z,16.67
2023-05-14T00:43:22.698Z,18.35
2023-05-14T00:45:51.722Z,16.65
2023-05-14T00:48:19.525Z,18.05
2023-05-14T00:50:47.152Z,16.48
2023-05-14T00:53:14.801Z,17.02
2023-05-14T00:55:42.674Z,18.75
2023-05-14T00:58:13.828Z,18.95
2023-05-14T01:00:41.807Z,18.48
2023-05-14T01:03:09.403Z,20.90
2023-05-14T01:06:03.209Z,19.00
2023-05-14T01:08:44.352Z,20.17
2023-05-14T01:11:20.025Z,19.45
2023-05-14T01:14:35.070Z,20.52
2023-05-14T01:19:41.673Z,21.05
2023-05-14T01:22:08.930Z,21.77
2023-05-14T01:24:36.140Z,21.45
2023-05-14T01:27:40.508Z,21.17
2023-05-14T01:30:38.737Z,21.65
2023-05-14T01:33:13.513Z,20.83
2023-05-14T01:35:42.846Z,20.27
2023-05-14T01:38:12.494Z,20.92
2023-05-14T01:40:39.938Z,20.05
2023-05-14T01:43:07.035Z,20.73
2023-05-14T01:45:36.938Z,21.33
2023-05-14T01:48:05.438Z,18.42
2023-05-14T01:50:32.531Z,20.77
2023-05-14T01:52:59.586Z,21.38
2023-05-14T01:55:27.637Z,20.70
2023-05-14T01:57:54.858Z,20.42
2023-05-14T02:00:25.515Z,20.35
2023-05-14T02:02:52.847Z,19.50
2023-05-14T02:05:20.116Z,20.20
2023-05-14T02:07:47.153Z,18.23
2023-05-14T02:10:14.184Z,19.95
2023-05-14T02:12:41.293Z,21.38
2023-05-14T02:15:10.948Z,19.95
2023-05-14T02:17:38.592Z,21.02
2023-05-14T02:20:06.300Z,20.27
2023-05-14T02:22:33.309Z,18.95
2023-05-14T02:25:01.134Z,19.65
2023-05-14T02:27:28.149Z,18.98
2023-05-14T02:29:56.607Z,19.00
2023-05-14T02:32:23.769Z,18.63
2023-05-14T02:34:50.851Z,20.30
2023-05-14T02:37:17.845Z,19.92
2023-05-14T02:39:44.882Z,20.33
2023-05-14T02:42:11.944Z,18.95
2023-05-14T02:44:38.894Z,20.30
2023-05-14T02:47:06.212Z,19.42
2023-05-14T02:49:33.204Z,20.38
2023-05-14T02:52:00.958Z,19.42
2023-05-14T02:54:27.973Z,20.98
2023-05-14T02:56:55.018Z,19.50
2023-05-14T02:59:23.692Z,19.92
2023-05-14T03:01:51.253Z,21.40
2023-05-14T03:04:18.632Z,22.30
2023-05-14T03:06:45.623Z,23.00
2023-05-14T03:09:12.570Z,20.60
2023-05-14T03:11:39.628Z,24.35
2023-05-14T03:14:06.559Z,23.63
2023-05-14T03:16:33.645Z,22.60
2023-05-14T03:19:00.757Z,22.30
2023-05-14T03:21:27.960Z,24.02
2023-05-14T03:23:54.987Z,23.25
2023-05-14T03:26:22.110Z,25.35
2023-05-14T03:28:51.923Z,23.48
2023-05-14T03:31:19.318Z,22.50
2023-05-14T03:33:46.345Z,23.30
2023-05-14T03:36:13.391Z,23.38
2023-05-14T03:38:40.392Z,27.08
2023-05-14T03:41:07.426Z,22.67
2023-05-14T03:43:34.372Z,23.92
2023-05-14T03:46:01.440Z,24.45
2023-05-14T03:48:28.656Z,22.58
2023-05-14T03:50:55.914Z,24.60
2023-05-14T03:53:22.900Z,23.70
2023-05-14T03:55:49.940Z,22.65
2023-05-14T03:58:17.514Z,25.85
2023-05-14T04:00:44.669Z,25.92
2023-05-14T04:03:12.042Z,26.10
2023-05-14T04:05:39.206Z,26.95
2023-05-14T04:08:06.987Z,28.83
2023-05-14T04:10:34.029Z,28.08
2023-05-14T04:13:01.124Z,26.90
2023-05-14T04:15:32.293Z,28.63
2023-05-14T04:17:59.412Z,27.73
2023-05-14T04:20:27.888Z,26.42
2023-05-14T04:22:55.524Z,29.00
2023-05-14T04:25:22.497Z,28.17
2023-05-14T04:27:49.909Z,26.98
2023-05-14T04:30:16.900Z,26.58
2023-05-14T04:32:44.380Z,26.58
2023-05-14T04:35:12.231Z,27.35
2023-05-14T04:37:39.329Z,25.35
2023-05-14T04:40:08.243Z,23.83
2023-05-14T04:42:35.356Z,26.10
2023-05-14T04:45:02.381Z,25.58
2023-05-14T04:47:29.791Z,25.58
2023-05-14T04:49:57.876Z,26.77
2023-05-14T04:52:25.233Z,26.88
2023-05-14T04:54:52.414Z,25.13
2023-05-14T04:57:19.445Z,24.73
2023-05-14T04:59:46.502Z,24.38
2023-05-14T05:02:13.472Z,28.02
2023-05-14T05:04:40.434Z,26.55
2023-05-14T05:07:07.564Z,26.73
2023-05-14T05:09:34.568Z,26.58
2023-05-14T05:12:02.006Z,26.00
2023-05-14T05:14:28.987Z,25.85
2023-05-14T05:16:56.110Z,24.65
2023-05-14T05:19:35.851Z,25.38
2023-05-14T05:22:10.523Z,24.85
2023-05-14T05:24:37.692Z,23.17
2023-05-14T05:27:05.595Z,25.05
2023-05-14T05:29:32.731Z,23.35
2023-05-14T05:31:59.864Z,23.75
2023-05-14T05:34:27.175Z,23.50
2023-05-14T05:36:54.183Z,22.30
2023-05-14T05:39:21.246Z,22.33
2023-05-14T05:41:48.373Z,21.52
2023-05-14T05:44:15.401Z,23.05
2023-05-14T05:46:42.529Z,22.73
2023-05-14T05:49:09.464Z,23.08
2023-05-14T05:51:36.464Z,21.73
2023-05-14T05:54:03.576Z,21.52
2023-05-14T05:56:30.839Z,22.38
2023-05-14T05:58:57.806Z,21.55
2023-05-14T06:01:24.834Z,23.33
2023-05-14T06:03:51.840Z,22.50
2023-05-14T06:06:18.842Z,23.88
2023-05-14T06:08:45.786Z,23.58
2023-05-14T06:11:12.802Z,22.65
2023-05-14T06:13:39.776Z,26.00
2023-05-14T06:16:06.889Z,25.05
2023-05-14T06:18:33.926Z,24.90
2023-05-14T06:21:00.969Z,25.35
2023-05-14T06:23:27.944Z,25.73
2023-05-14T06:25:54.951Z,26.70
2023-05-14T06:28:22.020Z,26.65
2023-05-14T06:30:54.003Z,30.13
2023-05-14T06:33:29.663Z,29.10
2023-05-14T06:36:01.011Z,29.40
2023-05-14T06:38:28.082Z,29.65
2023-05-14T06:40:55.085Z,28.60
2023-05-14T06:43:22.292Z,29.02
2023-05-14T06:45:50.204Z,32.55
2023-05-14T06:48:21.423Z,34.42
2023-05-14T06:50:49.445Z,37.20
2023-05-14T06:53:16.518Z,40.58
2023-05-14T06:55:43.580Z,34.67
2023-05-14T06:58:10.660Z,37.28
2023-05-14T07:00:37.690Z,34.13
2023-05-14T07:03:04.826Z,34.40
2023-05-14T07:05:32.391Z,33.35
2023-05-14T07:07:59.774Z,32.28
2023-05-14T07:10:26.869Z,35.42
2023-05-14T07:12:53.860Z,35.65
2023-05-14T07:15:21.262Z,36.08
2023-05-14T07:17:48.300Z,34.15
2023-05-14T07:20:15.334Z,35.90
2023-05-14T07:22:42.301Z,33.03
2023-05-14T07:25:09.456Z,33.83
2023-05-14T07:27:36.445Z,33.25
2023-05-14T07:30:03.625Z,35.10
2023-05-14T07:32:30.779Z,33.75
2023-05-14T07:34:57.809Z,33.97
2023-05-14T07:37:26.097Z,33.25
2023-05-14T07:39:53.952Z,33.20
2023-05-14T07:42:34.422Z,29.80
2023-05-14T07:45:02.009Z,33.47
2023-05-14T07:47:29.260Z,30.42
2023-05-14T07:49:57.079Z,30.75
2023-05-14T07:52:25.070Z,30.08
2023-05-14T07:54:52.544Z,30.33
2023-05-14T07:57:20.247Z,28.77
2023-05-14T07:59:48.313Z,28.15
2023-05-14T08:02:16.960Z,27.20
2023-05-14T08:04:44.468Z,27.23
2023-05-14T08:07:11.667Z,26.45
2023-05-14T08:09:38.704Z,28.35
2023-05-14T08:12:06.252Z,27.70
2023-05-14T08:14:33.313Z,28.27
2023-05-14T08:17:00.484Z,26.85
2023-05-14T08:19:27.880Z,28.67
2023-05-14T08:21:54.936Z,29.13
2023-05-14T08:24:21.979Z,27.00
2023-05-14T08:26:49.045Z,29.15
2023-05-14T08:29:16.685Z,26.85
2023-05-14T08:31:44.154Z,28.40
2023-05-14T08:34:11.301Z,29.90
2023-05-14T08:36:39.205Z,30.08
2023-05-14T08:39:07.759Z,30.63
2023-05-14T08:41:35.572Z,29.17
2023-05-14T08:44:18.128Z,28.85
2023-05-14T08:46:45.947Z,29.38
2023-05-14T08:49:25.483Z,29.67
2023-05-14T08:51:52.591Z,30.45
2023-05-14T08:54:22.599Z,32.05
2023-05-14T08:56:52.077Z,29.98
2023-05-14T08:59:19.820Z,29.92
2023-05-14T09:01:49.203Z,29.40
2023-05-14T09:04:19.541Z,28.20
2023-05-14T09:06:50.073Z,24.90
2023-05-14T09:09:17.609Z,23.63
2023-05-14T09:11:48.386Z,24.40
2023-05-14T09:14:15.996Z,24.00
2023-05-14T09:16:46.211Z,21.80
2023-05-14T09:19:14.186Z,21.70
2023-05-14T09:21:42.342Z,20.52
2023-05-14T09:24:09.485Z,20.02
2023-05-14T09:26:36.900Z,19.10
2023-05-14T09:29:04.268Z,18.75
2023-05-14T09:31:32.713Z,19.00
2023-05-14T09:34:00.685Z,17.90
2023-05-14T09:36:28.460Z,16.08
2023-05-14T09:38:58.636Z,16.33
2023-05-14T09:41:25.810Z,15.98
2023-05-14T09:43:52.982Z,15.05
2023-05-14T09:46:20.038Z,15.15
2023-05-14T09:48:47.001Z,15.45
2023-05-14T09:51:14.174Z,14.98
2023-05-14T09:53:43.371Z,15.10
2023-05-14T09:56:10.590Z,13.98
2023-05-14T09:58:37.537Z,14.60
2023-05-14T10:01:06.112Z,13.90
2023-05-14T10:03:33.200Z,14.20
2023-05-14T10:06:05.747Z,13.63
2023-05-14T10:08:41.304Z,13.73
2023-05-14T10:11:22.446Z,14.25
2023-05-14T10:14:18.694Z,12.85
2023-05-14T10:16:51.252Z,13.73
2023-05-14T10:19:21.514Z,13.77
2023-05-14T10:21:56.078Z,13.48
2023-05-14T10:24:24.582Z,14.00
2023-05-14T10:26:52.266Z,13.43
2023-05-14T10:29:19.344Z,13.13
2023-05-14T10:31:55.766Z,11.93
2023-05-14T10:34:37.290Z,12.65
2023-05-14T10:37:10.609Z,11.32
2023-05-14T10:39:51.067Z,11.32
2023-05-14T10:42:27.240Z,10.70
2023-05-14T10:45:01.641Z,10.90
2023-05-14T10:47:29.604Z,9.93
2023-05-14T10:49:59.118Z,9.57
2023-05-14T10:52:26.738Z,10.32
2023-05-14T10:55:03.587Z,9.93
2023-05-14T10:57:32.441Z,8.90
2023-05-14T11:00:03.526Z,9.55
2023-05-14T11:02:33.195Z,9.18
2023-05-14T11:05:05.637Z,8.43
2023-05-14T11:07:37.995Z,8.38
2023-05-14T11:10:09.689Z,8.93
2023-05-14T11:12:41.639Z,10.50
2023-05-14T11:15:10.624Z,10.88
2023-05-14T11:17:40.141Z,11.65
2023-05-14T11:20:08.165Z,9.25
2023-05-14T11:22:36.578Z,8.27
2023-05-14T11:25:04.453Z,9.13
2023-05-14T11:27:34.130Z,7.70
2023-05-14T11:30:01.347Z,8.13
2023-05-14T11:32:28.389Z,8.90
2023-05-14T11:34:56.024Z,8.23
2023-05-14T11:37:23.063Z,7.70
2023-05-14T11:39:55.849Z,8.43
2023-05-14T11:42:23.811Z,8.20
2023-05-14T11:44:52.161Z,8.65
2023-05-14T11:47:21.339Z,8.48
2023-05-14T11:49:49.515Z,9.23
2023-05-14T11:52:19.622Z,9.45
2023-05-14T11:54:47.096Z,8.80
2023-05-14T11:57:16.530Z,9.05
2023-05-14T11:59:44.223Z,9.02
2023-05-14T12:02:19.694Z,8.70
2023-05-14T12:04:53.695Z,8.80
2023-05-14T12:07:20.944Z,7.50
2023-05-14T12:09:49.799Z,7.63
2023-05-14T12:12:25.884Z,8.82
2023-05-14T12:14:53.061Z,7.38
2023-05-14T12:17:21.806Z,7.63
2023-05-14T12:19:51.085Z,7.40
2023-05-14T12:22:20.065Z,6.82
2023-05-14T12:24:55.026Z,6.47
2023-05-14T12:27:24.391Z,6.72
2023-05-14T12:30:09.344Z,7.40
2023-05-14T12:32:46.039Z,7.30
2023-05-14T12:35:13.111Z,8.43
2023-05-14T12:37:40.208Z,7.57
2023-05-14T12:40:10.639Z,7.60
2023-05-14T12:42:37.776Z,6.72
2023-05-14T12:45:08.003Z,6.35
2023-05-14T12:47:36.475Z,6.80
2023-05-14T12:50:04.151Z,6.50
2023-05-14T12:55:01.542Z,6.55
2023-05-14T12:57:30.246Z,7.22
2023-05-14T12:59:58.006Z,7.05
2023-05-14T13:02:24.973Z,7.30
2023-05-14T13:04:51.952Z,7.18
2023-05-14T13:07:18.963Z,7.80
2023-05-14T13:09:46.050Z,7.40
2023-05-14T13:12:13.034Z,7.47
2023-05-14T13:14:40.058Z,7.70
2023-05-14T13:17:08.125Z,6.95
2023-05-14T13:19:35.335Z,6.75
2023-05-14T13:22:02.383Z,7.68
2023-05-14T13:24:29.568Z,7.07
2023-05-14T13:26:56.798Z,7.20
2023-05-14T13:29:24.588Z,7.03
2023-05-14T13:31:51.757Z,6.70
2023-05-14T13:34:19.076Z,6.30
2023-05-14T13:36:47.174Z,6.80
2023-05-14T13:39:14.776Z,5.35
2023-05-14T13:41:42.141Z,5.18
2023-05-14T13:44:09.197Z,4.85
2023-05-14T13:46:36.185Z,4.95
2023-05-14T13:49:03.425Z,5.47
2023-05-14T13:51:31.281Z,5.25
2023-05-14T13:53:58.336Z,6.18
2023-05-14T13:56:25.984Z,6.30
2023-05-14T13:58:53.052Z,6.00
2023-05-14T14:01:20.013Z,6.50
2023-05-14T14:03:47.181Z,5.95
2023-05-14T14:06:14.106Z,5.15
2023-05-14T14:08:41.097Z,5.30
2023-05-14T14:11:08.097Z,5.95
2023-05-14T14:13:35.155Z,5.07
2023-05-14T14:16:03.605Z,5.20
2023-05-14T14:18:30.692Z,4.95
2023-05-14T14:20:57.849Z,4.68
2023-05-14T14:23:24.859Z,5.07
2023-05-14T14:25:51.883Z,5.47
2023-05-14T14:28:19.156Z,5.07
2023-05-14T14:30:46.193Z,5.25
2023-05-14T14:33:16.343Z,5.03
2023-05-14T14:35:43.419Z,5.63
2023-05-14T14:38:10.581Z,6.03
2023-05-14T14:40:37.718Z,6.43
2023-05-14T14:43:04.697Z,8.43
2023-05-14T14:45:33.161Z,8.57
2023-05-14T14:48:39.035Z,8.85
2023-05-14T14:51:07.944Z,10.00
2023-05-14T14:53:37.123Z,7.80
2023-05-14T14:56:04.942Z,8.70
2023-05-14T14:58:32.173Z,9.40
2023-05-14T15:01:01.192Z,8.55
2023-05-14T15:03:29.049Z,9.18
2023-05-14T15:05:56.357Z,10.00
2023-05-14T15:08:30.296Z,9.75
2023-05-14T15:10:57.434Z,10.80
2023-05-14T15:13:24.806Z,9.20
2023-05-14T15:15:52.629Z,10.50
2023-05-14T15:18:19.780Z,10.38
2023-05-14T15:20:46.985Z,10.00
2023-05-14T15:23:14.033Z,10.38
2023-05-14T15:25:41.072Z,8.18
2023-05-14T15:28:08.146Z,8.23
2023-05-14T15:30:35.349Z,8.50
2023-05-14T15:33:02.584Z,9.32
2023-05-14T15:35:29.700Z,7.95
2023-05-14T15:37:59.936Z,8.52
2023-05-14T15:40:29.799Z,7.97
2023-05-14T15:42:56.749Z,8.80
2023-05-14T15:45:23.897Z,8.93
2023-05-14T15:47:51.078Z,9.13
2023-05-14T15:50:18.175Z,7.28
2023-05-14T15:52:45.449Z,6.68
2023-05-14T15:55:12.548Z,6.97
2023-05-14T15:57:39.523Z,7.22
2023-05-14T16:00:12.773Z,7.15
2023-05-14T16:02:40.037Z,7.53
2023-05-14T16:05:08.346Z,7.20
2023-05-14T16:07:35.954Z,6.57
2023-05-14T16:10:03.348Z,7.07
2023-05-14T16:12:30.456Z,7.78
2023-05-14T16:14:57.747Z,7.60
2023-05-14T16:17:24.934Z,6.43
2023-05-14T16:19:53.456Z,7.78
2023-05-14T16:22:22.483Z,7.53
2023-05-14T16:24:49.430Z,8.70
2023-05-14T16:27:18.880Z,7.07
2023-05-14T16:29:45.939Z,7.25
2023-05-14T16:32:13.071Z,6.13
2023-05-14T16:34:40.588Z,6.78
2023-05-14T16:37:08.103Z,6.47
2023-05-14T16:39:35.106Z,6.82
2023-05-14T16:42:01.999Z,7.18
2023-05-14T16:44:29.023Z,6.80
2023-05-14T16:46:56.628Z,6.45
2023-05-14T16:49:23.699Z,6.20
2023-05-14T16:51:50.706Z,5.97
2023-05-14T16:54:17.702Z,5.95
2023-05-14T16:56:48.150Z,5.47
2023-05-14T16:59:16.819Z,4.95
2023-05-14T17:01:44.538Z,4.75
2023-05-14T17:04:11.736Z,4.80
2023-05-14T17:06:38.890Z,5.00
2023-05-14T17:09:06.944Z,5.05
2023-05-14T17:11:34.008Z,5.50
2023-05-14T17:14:01.057Z,5.63
2023-05-14T17:16:28.345Z,5.97
2023-05-14T17:18:55.474Z,5.75
2023-05-14T17:21:22.476Z,6.90
2023-05-14T17:23:49.789Z,7.95
2023-05-14T17:26:16.870Z,8.38
2023-05-14T17:28:43.901Z,8.68
2023-05-14T17:31:10.828Z,8.55
2023-05-14T17:33:37.849Z,9.85
2023-05-14T17:36:05.050Z,8.15
2023-05-14T17:38:32.149Z,9.20
2023-05-14T17:40:59.385Z,9.05
2023-05-14T17:43:26.369Z,8.55
2023-05-14T17:45:54.802Z,9.32
2023-05-14T17:48:23.949Z,9.25
2023-05-14T17:50:54.122Z,8.70
2023-05-14T17:53:21.374Z,9.23
2023-05-14T17:55:48.558Z,9.15
2023-05-14T17:58:16.273Z,10.05
2023-05-14T18:00:43.992Z,9.48
2023-05-14T18:03:11.602Z,9.75
2023-05-14T18:05:38.924Z,8.80
2023-05-14T18:08:05.983Z,8.63
2023-05-14T18:10:32.966Z,10.00
2023-05-14T18:13:00.070Z,9.00
2023-05-14T18:15:27.490Z,9.68
2023-05-14T18:17:54.868Z,9.23
2023-05-14T18:20:22.038Z,9.68
2023-05-14T18:22:52.386Z,10.10
2023-05-14T18:25:19.494Z,9.55
2023-05-14T18:27:47.068Z,9.95
2023-05-14T18:30:15.752Z,10.50
2023-05-14T18:32:44.487Z,9.80
2023-05-14T18:35:13.170Z,10.55
2023-05-14T18:37:40.966Z,10.40
2023-05-14T18:40:08.934Z,11.25
2023-05-14T18:42:35.915Z,10.43
2023-05-14T18:45:04.202Z,9.98
2023-05-14T18:47:32.034Z,9.93
2023-05-14T18:50:01.810Z,10.73
2023-05-14T18:52:30.432Z,9.88
2023-05-14T18:54:57.355Z,10.77
2023-05-14T18:57:25.693Z,10.73
2023-05-14T18:59:52.851Z,10.43
2023-05-14T19:02:19.906Z,9.70
2023-05-14T19:07:16.957Z,10.45
2023-05-14T19:09:43.900Z,10.35
2023-05-14T19:12:10.943Z,11.27
2023-05-14T19:14:38.198Z,11.25
2023-05-14T19:17:05.665Z,11.02
2023-05-14T19:19:33.145Z,11.60
2023-05-14T19:22:02.830Z,10.52
2023-05-14T19:24:30.379Z,10.40
2023-05-14T19:26:57.517Z,9.38
2023-05-14T19:29:24.921Z,10.43
2023-05-14T19:31:52.068Z,10.80
2023-05-14T19:34:19.231Z,11.82
2023-05-14T19:36:46.400Z,12.60
2023-05-14T19:39:13.523Z,13.85
2023-05-14T19:41:40.676Z,16.33
2023-05-14T19:44:07.909Z,13.15
2023-05-14T19:46:35.090Z,15.20
2023-05-14T19:49:02.086Z,16.33
2023-05-14T19:51:29.056Z,14.23
2023-05-14T19:53:56.203Z,16.65
2023-05-14T19:56:24.639Z,17.63
2023-05-14T19:58:52.753Z,16.83
2023-05-14T20:01:21.125Z,17.67
2023-05-14T20:03:48.240Z,17.90
2023-05-14T20:06:15.620Z,16.98
2023-05-14T20:08:42.626Z,18.65
2023-05-14T20:11:09.586Z,18.02
2023-05-14T20:13:36.803Z,16.05
2023-05-14T20:16:03.870Z,16.15
2023-05-14T20:18:31.273Z,17.40
2023-05-14T20:20:58.455Z,16.65
2023-05-14T20:23:25.468Z,16.55
2023-05-14T20:25:52.598Z,17.63
2023-05-14T20:28:19.502Z,19.23
2023-05-14T20:30:46.591Z,19.30
2023-05-14T20:33:14.971Z,19.88
2023-05-14T20:35:43.948Z,21.05
2023-05-14T20:38:12.908Z,21.33
2023-05-14T20:40:40.469Z,23.13
2023-05-14T20:43:07.538Z,23.45
2023-05-14T20:45:34.654Z,24.00
2023-05-14T20:48:01.805Z,23.05
2023-05-14T20:50:28.899Z,25.33
2023-05-14T20:52:56.153Z,22.92
2023-05-14T20:55:23.577Z,24.33
2023-05-14T20:57:50.899Z,24.08
2023-05-14T21:00:22.469Z,23.00
2023-05-14T21:02:49.978Z,23.83
2023-05-14T21:05:17.484Z,25.67
2023-05-14T21:07:44.602Z,24.48
2023-05-14T21:10:11.768Z,25.67
2023-05-14T21:12:38.809Z,25.30
2023-05-14T21:15:06.209Z,24.05
2023-05-14T21:17:33.220Z,23.20
2023-05-14T21:20:00.903Z,23.67
2023-05-14T21:22:28.087Z,22.98
2023-05-14T21:24:55.762Z,24.77
2023-05-14T21:27:23.205Z,23.58
2023-05-14T21:29:50.287Z,26.10
2023-05-14T21:32:17.976Z,23.60
2023-05-14T21:34:44.965Z,21.92
2023-05-14T21:37:12.151Z,24.40
2023-05-14T21:39:39.129Z,22.48
2023-05-14T21:42:06.435Z,22.02
2023-05-14T21:44:33.409Z,21.20
2023-05-14T21:47:00.498Z,22.63
2023-05-14T21:49:27.422Z,22.73
2023-05-14T21:51:54.699Z,22.80
2023-05-14T21:54:21.789Z,23.98
2023-05-14T21:56:48.964Z,23.58
2023-05-14T21:59:15.967Z,23.23
2023-05-14T22:04:13.254Z,22.52
2023-05-14T22:06:40.516Z,23.67
2023-05-14T22:09:07.565Z,23.38
2023-05-14T22:11:34.497Z,25.85
2023-05-14T22:14:01.542Z,27.25
2023-05-14T22:16:28.606Z,25.67
2023-05-14T22:18:55.746Z,27.13
2023-05-14T22:21:22.739Z,28.23
2023-05-14T22:23:50.421Z,26.55
2023-05-14T22:26:17.424Z,30.20
2023-05-14T22:28:44.456Z,29.33
2023-05-14T22:31:11.553Z,29.48
2023-05-14T22:33:38.678Z,28.05
2023-05-14T22:36:07.102Z,29.35
2023-05-14T22:38:34.490Z,30.48
2023-05-14T22:41:01.452Z,30.58
2023-05-14T22:43:28.570Z,30.45
2023-05-14T22:45:55.698Z,30.48
2023-05-14T22:48:22.808Z,30.73
2023-05-14T22:50:49.763Z,32.67
2023-05-14T22:53:16.767Z,31.05
2023-05-14T22:55:43.937Z,31.98
2023-05-14T22:58:11.363Z,31.25
2023-05-14T23:00:38.306Z,35.38
2023-05-14T23:03:05.460Z,35.72
2023-05-14T23:05:32.545Z,35.42
2023-05-14T23:07:59.579Z,35.53
2023-05-14T23:10:26.560Z,38.03
2023-05-14T23:12:53.616Z,37.45
2023-05-14T23:15:20.590Z,40.10
2023-05-14T23:17:47.651Z,42.92
2023-05-14T23:20:15.060Z,40.53
2023-05-14T23:22:42.122Z,41.65
2023-05-14T23:25:09.578Z,37.63
2023-05-14T23:27:36.650Z,38.95
2023-05-14T23:30:04.298Z,39.72
2023-05-14T23:32:31.377Z,40.65
2023-05-14T23:34:58.376Z,40.72
2023-05-14T23:37:25.683Z,42.42
2023-05-14T23:39:53.221Z,37.20
2023-05-14T23:42:20.779Z,40.63
2023-05-14T23:44:48.098Z,42.50
2023-05-14T23:47:15.195Z,40.58
2023-05-14T23:49:42.265Z,42.97
2023-05-14T23:52:09.314Z,45.45
2023-05-14T23:54:36.313Z,40.42
2023-05-14T23:57:04.511Z,42.05
2023-05-14T23:59:31.489Z,41.88
